sensor_id;sensor_type;location;lat;lon;timestamp;P1;durP1;ratioP1;P2;durP2;ratioP2
51298;SDS011;37382;45.192;9.790;2022-07-29T00:00:31;3.90;;;2.65;;
51298;SDS011;37382;45.192;9.790;2022-07-29T00:02:59;2.92;;;2.15;;
51298;SDS011;37382;45.192;9.790;2022-07-29T00:05:27;4.20;;;2.63;;
51298;SDS011;37382;45.192;9.790;2022-07-29T00:07:55;5.35;;;3.60;;
51298;SDS011;37382;45.192;9.790;2022-07-29T00:10:22;3.70;;;2.95;;
51298;SDS011;37382;45.192;9.790;2022-07-29T00:12:50;4.63;;;2.60;;
51298;SDS011;37382;45.192;9.790;2022-07-29T00:15:18;4.30;;;2.83;;
51298;SDS011;37382;45.192;9.790;2022-07-29T00:17:45;3.20;;;2.88;;
51298;SDS011;37382;45.192;9.790;2022-07-29T00:20:13;3.85;;;3.45;;
51298;SDS011;37382;45.192;9.790;2022-07-29T00:22:40;4.13;;;3.55;;
51298;SDS011;37382;45.192;9.790;2022-07-29T00:25:08;5.32;;;3.10;;
51298;SDS011;37382;45.192;9.790;2022-07-29T00:27:36;5.07;;;3.17;;
51298;SDS011;37382;45.192;9.790;2022-07-29T00:30:04;5.22;;;3.13;;
51298;SDS011;37382;45.192;9.790;2022-07-29T00:32:32;8.02;;;3.38;;
51298;SDS011;37382;45.192;9.790;2022-07-29T00:35:00;3.95;;;3.33;;
51298;SDS011;37382;45.192;9.790;2022-07-29T00:37:46;5.55;;;3.90;;
51298;SDS011;37382;45.192;9.790;2022-07-29T00:40:13;5.20;;;3.72;;
51298;SDS011;37382;45.192;9.790;2022-07-29T00:42:45;4.22;;;3.20;;
51298;SDS011;37382;45.192;9.790;2022-07-29T00:45:14;6.88;;;3.75;;
51298;SDS011;37382;45.192;9.790;2022-07-29T00:47:42;5.20;;;3.45;;
51298;SDS011;37382;45.192;9.790;2022-07-29T00:50:11;6.72;;;3.55;;
51298;SDS011;37382;45.192;9.790;2022-07-29T00:52:40;6.80;;;4.28;;
51298;SDS011;37382;45.192;9.790;2022-07-29T00:55:12;5.65;;;4.18;;
51298;SDS011;37382;45.192;9.790;2022-07-29T00:57:42;4.90;;;4.13;;
51298;SDS011;37382;45.192;9.790;2022-07-29T01:00:12;6.60;;;4.18;;
51298;SDS011;37382;45.192;9.790;2022-07-29T01:02:45;4.82;;;4.25;;
51298;SDS011;37382;45.192;9.790;2022-07-29T01:05:19;4.93;;;4.45;;
51298;SDS011;37382;45.192;9.790;2022-07-29T01:07:48;4.68;;;4.22;;
51298;SDS011;37382;45.192;9.790;2022-07-29T01:10:19;7.28;;;4.35;;
51298;SDS011;37382;45.192;9.790;2022-07-29T01:12:49;4.93;;;4.38;;
51298;SDS011;37382;45.192;9.790;2022-07-29T01:15:18;6.40;;;4.32;;
51298;SDS011;37382;45.192;9.790;2022-07-29T01:29:06;5.85;;;5.18;;
51298;SDS011;37382;45.192;9.790;2022-07-29T01:31:45;8.73;;;5.30;;
51298;SDS011;37382;45.192;9.790;2022-07-29T01:34:40;6.68;;;5.72;;
51298;SDS011;37382;45.192;9.790;2022-07-29T01:40:19;12.95;;;6.35;;
51298;SDS011;37382;45.192;9.790;2022-07-29T01:42:51;8.10;;;6.10;;
51298;SDS011;37382;45.192;9.790;2022-07-29T01:45:23;7.78;;;6.22;;
51298;SDS011;37382;45.192;9.790;2022-07-29T01:50:38;9.80;;;6.15;;
51298;SDS011;37382;45.192;9.790;2022-07-29T01:53:14;9.40;;;6.63;;
51298;SDS011;37382;45.192;9.790;2022-07-29T01:55:48;8.65;;;6.43;;
51298;SDS011;37382;45.192;9.790;2022-07-29T01:58:16;8.50;;;6.80;;
51298;SDS011;37382;45.192;9.790;2022-07-29T02:00:46;7.85;;;6.82;;
51298;SDS011;37382;45.192;9.790;2022-07-29T02:03:15;14.77;;;6.57;;
51298;SDS011;37382;45.192;9.790;2022-07-29T02:05:46;11.82;;;7.47;;
51298;SDS011;37382;45.192;9.790;2022-07-29T02:08:14;8.60;;;6.75;;
51298;SDS011;37382;45.192;9.790;2022-07-29T02:10:45;11.67;;;7.00;;
51298;SDS011;37382;45.192;9.790;2022-07-29T02:13:15;9.82;;;6.72;;
51298;SDS011;37382;45.192;9.790;2022-07-29T02:15:45;9.35;;;7.03;;
51298;SDS011;37382;45.192;9.790;2022-07-29T02:18:17;8.70;;;6.35;;
51298;SDS011;37382;45.192;9.790;2022-07-29T02:20:48;8.45;;;7.05;;
51298;SDS011;37382;45.192;9.790;2022-07-29T02:23:20;14.32;;;7.43;;
51298;SDS011;37382;45.192;9.790;2022-07-29T02:25:50;8.57;;;7.73;;
51298;SDS011;37382;45.192;9.790;2022-07-29T02:28:20;11.55;;;7.30;;
51298;SDS011;37382;45.192;9.790;2022-07-29T02:30:49;7.93;;;7.20;;
51298;SDS011;37382;45.192;9.790;2022-07-29T02:33:19;9.65;;;7.75;;
51298;SDS011;37382;45.192;9.790;2022-07-29T02:35:48;8.70;;;7.72;;
51298;SDS011;37382;45.192;9.790;2022-07-29T02:38:17;8.15;;;7.38;;
51298;SDS011;37382;45.192;9.790;2022-07-29T02:41:08;10.48;;;7.43;;
51298;SDS011;37382;45.192;9.790;2022-07-29T02:43:39;9.80;;;7.95;;
51298;SDS011;37382;45.192;9.790;2022-07-29T02:46:08;9.13;;;8.10;;
51298;SDS011;37382;45.192;9.790;2022-07-29T02:51:53;11.07;;;9.82;;
51298;SDS011;37382;45.192;9.790;2022-07-29T02:54:32;10.88;;;9.75;;
51298;SDS011;37382;45.192;9.790;2022-07-29T02:57:22;12.63;;;10.63;;
51298;SDS011;37382;45.192;9.790;2022-07-29T02:59:58;12.32;;;10.52;;
51298;SDS011;37382;45.192;9.790;2022-07-29T03:02:33;13.10;;;11.65;;
51298;SDS011;37382;45.192;9.790;2022-07-29T03:05:05;14.85;;;11.25;;
51298;SDS011;37382;45.192;9.790;2022-07-29T03:10:04;14.05;;;10.65;;
51298;SDS011;37382;45.192;9.790;2022-07-29T03:12:40;12.48;;;11.18;;
51298;SDS011;37382;45.192;9.790;2022-07-29T03:15:08;13.70;;;11.73;;
51298;SDS011;37382;45.192;9.790;2022-07-29T03:17:37;12.48;;;11.15;;
51298;SDS011;37382;45.192;9.790;2022-07-29T03:20:06;12.63;;;11.10;;
51298;SDS011;37382;45.192;9.790;2022-07-29T03:22:41;17.27;;;12.07;;
51298;SDS011;37382;45.192;9.790;2022-07-29T03:25:11;12.27;;;10.98;;
51298;SDS011;37382;45.192;9.790;2022-07-29T03:27:39;17.65;;;12.23;;
51298;SDS011;37382;45.192;9.790;2022-07-29T03:30:07;14.82;;;12.60;;
51298;SDS011;37382;45.192;9.790;2022-07-29T03:32:35;13.38;;;11.88;;
51298;SDS011;37382;45.192;9.790;2022-07-29T03:35:04;13.40;;;11.93;;
51298;SDS011;37382;45.192;9.790;2022-07-29T03:37:32;15.05;;;12.50;;
51298;SDS011;37382;45.192;9.790;2022-07-29T03:40:02;14.07;;;12.23;;
51298;SDS011;37382;45.192;9.790;2022-07-29T03:42:35;15.43;;;12.45;;
51298;SDS011;37382;45.192;9.790;2022-07-29T03:45:06;14.00;;;12.60;;
51298;SDS011;37382;45.192;9.790;2022-07-29T03:47:38;14.48;;;12.07;;
51298;SDS011;37382;45.192;9.790;2022-07-29T03:50:18;17.40;;;13.13;;
51298;SDS011;37382;45.192;9.790;2022-07-29T03:52:48;14.40;;;12.98;;
51298;SDS011;37382;45.192;9.790;2022-07-29T03:55:16;16.45;;;13.70;;
51298;SDS011;37382;45.192;9.790;2022-07-29T03:57:45;15.38;;;13.70;;
51298;SDS011;37382;45.192;9.790;2022-07-29T04:00:14;15.20;;;13.60;;
51298;SDS011;37382;45.192;9.790;2022-07-29T04:02:43;17.60;;;13.77;;
51298;SDS011;37382;45.192;9.790;2022-07-29T04:05:16;15.60;;;14.00;;
51298;SDS011;37382;45.192;9.790;2022-07-29T04:07:44;17.25;;;14.90;;
51298;SDS011;37382;45.192;9.790;2022-07-29T04:10:13;19.00;;;15.05;;
51298;SDS011;37382;45.192;9.790;2022-07-29T04:12:42;17.95;;;14.88;;
51298;SDS011;37382;45.192;9.790;2022-07-29T04:15:10;17.08;;;15.35;;
51298;SDS011;37382;45.192;9.790;2022-07-29T04:17:38;22.90;;;15.13;;
51298;SDS011;37382;45.192;9.790;2022-07-29T04:20:06;16.30;;;14.70;;
51298;SDS011;37382;45.192;9.790;2022-07-29T04:22:33;16.10;;;14.50;;
51298;SDS011;37382;45.192;9.790;2022-07-29T04:25:01;16.17;;;14.30;;
51298;SDS011;37382;45.192;9.790;2022-07-29T04:27:30;19.23;;;14.75;;
51298;SDS011;37382;45.192;9.790;2022-07-29T04:29:58;18.02;;;14.65;;
51298;SDS011;37382;45.192;9.790;2022-07-29T04:32:25;17.65;;;13.88;;
51298;SDS011;37382;45.192;9.790;2022-07-29T04:34:53;26.08;;;14.35;;
51298;SDS011;37382;45.192;9.790;2022-07-29T04:37:21;18.33;;;14.50;;
51298;SDS011;37382;45.192;9.790;2022-07-29T04:39:48;18.50;;;14.57;;
51298;SDS011;37382;45.192;9.790;2022-07-29T04:42:16;15.20;;;13.20;;
51298;SDS011;37382;45.192;9.790;2022-07-29T04:44:51;19.70;;;15.20;;
51298;SDS011;37382;45.192;9.790;2022-07-29T04:47:18;19.25;;;14.73;;
51298;SDS011;37382;45.192;9.790;2022-07-29T04:49:46;32.35;;;14.85;;
51298;SDS011;37382;45.192;9.790;2022-07-29T04:52:13;25.70;;;14.50;;
51298;SDS011;37382;45.192;9.790;2022-07-29T04:54:41;18.75;;;14.32;;
51298;SDS011;37382;45.192;9.790;2022-07-29T04:57:08;16.88;;;15.07;;
51298;SDS011;37382;45.192;9.790;2022-07-29T04:59:35;17.08;;;15.30;;
51298;SDS011;37382;45.192;9.790;2022-07-29T05:02:03;18.60;;;15.52;;
51298;SDS011;37382;45.192;9.790;2022-07-29T05:04:31;17.63;;;15.18;;
51298;SDS011;37382;45.192;9.790;2022-07-29T05:06:58;22.98;;;15.45;;
51298;SDS011;37382;45.192;9.790;2022-07-29T05:09:26;23.63;;;15.48;;
51298;SDS011;37382;45.192;9.790;2022-07-29T05:11:53;22.05;;;15.23;;
51298;SDS011;37382;45.192;9.790;2022-07-29T05:14:21;22.77;;;15.63;;
51298;SDS011;37382;45.192;9.790;2022-07-29T05:16:48;18.15;;;15.60;;
51298;SDS011;37382;45.192;9.790;2022-07-29T05:19:18;19.27;;;14.50;;
51298;SDS011;37382;45.192;9.790;2022-07-29T05:21:45;18.70;;;15.20;;
51298;SDS011;37382;45.192;9.790;2022-07-29T05:24:12;19.92;;;14.48;;
51298;SDS011;37382;45.192;9.790;2022-07-29T05:26:42;15.40;;;13.80;;
51298;SDS011;37382;45.192;9.790;2022-07-29T05:29:09;18.83;;;13.63;;
51298;SDS011;37382;45.192;9.790;2022-07-29T05:31:58;19.02;;;14.32;;
51298;SDS011;37382;45.192;9.790;2022-07-29T05:34:26;17.60;;;14.40;;
51298;SDS011;37382;45.192;9.790;2022-07-29T05:36:53;16.30;;;14.50;;
51298;SDS011;37382;45.192;9.790;2022-07-29T05:39:21;19.35;;;14.02;;
51298;SDS011;37382;45.192;9.790;2022-07-29T05:42:09;25.38;;;14.30;;
51298;SDS011;37382;45.192;9.790;2022-07-29T05:44:37;18.90;;;14.68;;
51298;SDS011;37382;45.192;9.790;2022-07-29T05:47:05;19.40;;;15.13;;
51298;SDS011;37382;45.192;9.790;2022-07-29T05:49:33;21.00;;;15.45;;
51298;SDS011;37382;45.192;9.790;2022-07-29T05:52:01;18.85;;;15.27;;
51298;SDS011;37382;45.192;9.790;2022-07-29T05:54:28;21.77;;;15.02;;
51298;SDS011;37382;45.192;9.790;2022-07-29T05:56:56;19.70;;;14.48;;
51298;SDS011;37382;45.192;9.790;2022-07-29T05:59:23;21.13;;;14.38;;
51298;SDS011;37382;45.192;9.790;2022-07-29T06:01:56;16.55;;;12.65;;
51298;SDS011;37382;45.192;9.790;2022-07-29T06:04:24;18.65;;;13.18;;
51298;SDS011;37382;45.192;9.790;2022-07-29T06:06:52;19.02;;;11.98;;
51298;SDS011;37382;45.192;9.790;2022-07-29T06:09:19;16.33;;;12.35;;
51298;SDS011;37382;45.192;9.790;2022-07-29T06:11:47;15.07;;;11.05;;
51298;SDS011;37382;45.192;9.790;2022-07-29T06:14:14;24.33;;;12.85;;
51298;SDS011;37382;45.192;9.790;2022-07-29T06:16:42;14.48;;;11.82;;
51298;SDS011;37382;45.192;9.790;2022-07-29T06:19:10;16.35;;;11.75;;
51298;SDS011;37382;45.192;9.790;2022-07-29T06:21:43;17.00;;;12.63;;
51298;SDS011;37382;45.192;9.790;2022-07-29T06:24:12;17.50;;;12.55;;
51298;SDS011;37382;45.192;9.790;2022-07-29T06:26:41;22.60;;;13.40;;
51298;SDS011;37382;45.192;9.790;2022-07-29T06:29:09;28.02;;;13.07;;
51298;SDS011;37382;45.192;9.790;2022-07-29T06:31:37;18.17;;;10.90;;
51298;SDS011;37382;45.192;9.790;2022-07-29T06:34:05;15.55;;;12.55;;
51298;SDS011;37382;45.192;9.790;2022-07-29T06:36:34;14.75;;;12.27;;
51298;SDS011;37382;45.192;9.790;2022-07-29T06:39:04;15.50;;;12.00;;
51298;SDS011;37382;45.192;9.790;2022-07-29T06:44:08;14.38;;;10.73;;
51298;SDS011;37382;45.192;9.790;2022-07-29T06:46:36;12.10;;;10.73;;
51298;SDS011;37382;45.192;9.790;2022-07-29T06:49:04;19.98;;;11.20;;
51298;SDS011;37382;45.192;9.790;2022-07-29T06:51:32;17.52;;;11.88;;
51298;SDS011;37382;45.192;9.790;2022-07-29T06:53:59;20.33;;;12.70;;
51298;SDS011;37382;45.192;9.790;2022-07-29T06:56:30;21.10;;;12.60;;
51298;SDS011;37382;45.192;9.790;2022-07-29T06:59:04;23.88;;;11.68;;
51298;SDS011;37382;45.192;9.790;2022-07-29T07:01:32;12.57;;;10.27;;
51298;SDS011;37382;45.192;9.790;2022-07-29T07:04:00;9.88;;;8.30;;
51298;SDS011;37382;45.192;9.790;2022-07-29T07:06:27;10.27;;;8.30;;
51298;SDS011;37382;45.192;9.790;2022-07-29T07:08:55;9.80;;;7.07;;
51298;SDS011;37382;45.192;9.790;2022-07-29T07:11:22;16.05;;;6.82;;
51298;SDS011;37382;45.192;9.790;2022-07-29T07:13:50;10.73;;;6.50;;
51298;SDS011;37382;45.192;9.790;2022-07-29T07:16:17;17.10;;;9.93;;
51298;SDS011;37382;45.192;9.790;2022-07-29T07:18:45;14.13;;;8.13;;
51298;SDS011;37382;45.192;9.790;2022-07-29T07:21:13;13.90;;;6.20;;
51298;SDS011;37382;45.192;9.790;2022-07-29T07:23:45;15.60;;;7.70;;
51298;SDS011;37382;45.192;9.790;2022-07-29T07:26:14;14.27;;;8.30;;
51298;SDS011;37382;45.192;9.790;2022-07-29T07:28:41;16.05;;;7.63;;
51298;SDS011;37382;45.192;9.790;2022-07-29T07:31:09;8.80;;;6.63;;
51298;SDS011;37382;45.192;9.790;2022-07-29T07:33:37;9.07;;;5.95;;
51298;SDS011;37382;45.192;9.790;2022-07-29T07:36:05;14.38;;;9.25;;
51298;SDS011;37382;45.192;9.790;2022-07-29T07:38:32;14.90;;;8.95;;
51298;SDS011;37382;45.192;9.790;2022-07-29T07:41:00;15.55;;;9.30;;
51298;SDS011;37382;45.192;9.790;2022-07-29T07:43:28;15.90;;;7.97;;
51298;SDS011;37382;45.192;9.790;2022-07-29T07:45:55;10.30;;;8.57;;
51298;SDS011;37382;45.192;9.790;2022-07-29T07:48:23;10.13;;;7.32;;
51298;SDS011;37382;45.192;9.790;2022-07-29T07:50:53;14.23;;;8.37;;
51298;SDS011;37382;45.192;9.790;2022-07-29T07:53:21;15.63;;;9.25;;
51298;SDS011;37382;45.192;9.790;2022-07-29T07:55:49;8.55;;;6.18;;
51298;SDS011;37382;45.192;9.790;2022-07-29T07:58:36;8.60;;;7.28;;
51298;SDS011;37382;45.192;9.790;2022-07-29T08:01:04;15.35;;;7.95;;
51298;SDS011;37382;45.192;9.790;2022-07-29T08:03:32;9.95;;;7.47;;
51298;SDS011;37382;45.192;9.790;2022-07-29T08:06:00;12.50;;;7.72;;
51298;SDS011;37382;45.192;9.790;2022-07-29T08:08:28;10.65;;;7.53;;
51298;SDS011;37382;45.192;9.790;2022-07-29T08:10:55;8.38;;;7.07;;
51298;SDS011;37382;45.192;9.790;2022-07-29T08:13:25;13.43;;;7.60;;
51298;SDS011;37382;45.192;9.790;2022-07-29T08:15:55;9.70;;;6.57;;
51298;SDS011;37382;45.192;9.790;2022-07-29T08:18:29;7.60;;;6.70;;
51298;SDS011;37382;45.192;9.790;2022-07-29T08:20:58;11.38;;;7.00;;
51298;SDS011;37382;45.192;9.790;2022-07-29T08:23:25;16.48;;;6.78;;
51298;SDS011;37382;45.192;9.790;2022-07-29T08:26:13;8.15;;;7.35;;
51298;SDS011;37382;45.192;9.790;2022-07-29T08:28:43;15.88;;;8.02;;
51298;SDS011;37382;45.192;9.790;2022-07-29T08:31:13;7.07;;;5.10;;
51298;SDS011;37382;45.192;9.790;2022-07-29T08:33:41;10.07;;;6.35;;
51298;SDS011;37382;45.192;9.790;2022-07-29T08:36:09;12.48;;;6.72;;
51298;SDS011;37382;45.192;9.790;2022-07-29T08:38:37;14.35;;;5.80;;
51298;SDS011;37382;45.192;9.790;2022-07-29T08:41:04;9.57;;;6.20;;
51298;SDS011;37382;45.192;9.790;2022-07-29T08:43:31;9.18;;;6.00;;
51298;SDS011;37382;45.192;9.790;2022-07-29T08:46:02;11.38;;;7.35;;
51298;SDS011;37382;45.192;9.790;2022-07-29T08:48:29;6.60;;;5.30;;
51298;SDS011;37382;45.192;9.790;2022-07-29T08:50:58;8.48;;;6.97;;
51298;SDS011;37382;45.192;9.790;2022-07-29T08:53:29;12.50;;;6.83;;
51298;SDS011;37382;45.192;9.790;2022-07-29T08:55:56;9.00;;;7.57;;
51298;SDS011;37382;45.192;9.790;2022-07-29T08:58:25;12.18;;;6.65;;
51298;SDS011;37382;45.192;9.790;2022-07-29T09:00:55;10.13;;;7.15;;
51298;SDS011;37382;45.192;9.790;2022-07-29T09:03:25;12.13;;;6.82;;
51298;SDS011;37382;45.192;9.790;2022-07-29T09:06:01;13.60;;;7.35;;
51298;SDS011;37382;45.192;9.790;2022-07-29T09:08:30;15.00;;;7.00;;
51298;SDS011;37382;45.192;9.790;2022-07-29T09:11:00;11.52;;;7.32;;
51298;SDS011;37382;45.192;9.790;2022-07-29T09:13:30;12.55;;;7.47;;
51298;SDS011;37382;45.192;9.790;2022-07-29T09:15:57;7.40;;;5.38;;
51298;SDS011;37382;45.192;9.790;2022-07-29T09:21:03;7.07;;;6.43;;
51298;SDS011;37382;45.192;9.790;2022-07-29T09:24:25;9.35;;;4.90;;
51298;SDS011;37382;45.192;9.790;2022-07-29T09:26:45;22.48;;;7.47;;
51298;SDS011;37382;45.192;9.790;2022-07-29T09:29:18;11.45;;;7.07;;
51298;SDS011;37382;45.192;9.790;2022-07-29T09:31:48;10.13;;;6.28;;
51298;SDS011;37382;45.192;9.790;2022-07-29T09:34:28;7.82;;;5.43;;
51298;SDS011;37382;45.192;9.790;2022-07-29T09:36:58;6.70;;;5.03;;
51298;SDS011;37382;45.192;9.790;2022-07-29T09:39:29;9.13;;;5.30;;
51298;SDS011;37382;45.192;9.790;2022-07-29T09:42:01;9.15;;;6.35;;
51298;SDS011;37382;45.192;9.790;2022-07-29T09:44:47;9.27;;;5.77;;
51298;SDS011;37382;45.192;9.790;2022-07-29T09:47:17;15.18;;;6.75;;
51298;SDS011;37382;45.192;9.790;2022-07-29T09:49:58;12.98;;;7.88;;
51298;SDS011;37382;45.192;9.790;2022-07-29T09:52:27;11.20;;;6.78;;
51298;SDS011;37382;45.192;9.790;2022-07-29T09:55:06;16.52;;;6.95;;
51298;SDS011;37382;45.192;9.790;2022-07-29T09:57:34;13.18;;;7.18;;
51298;SDS011;37382;45.192;9.790;2022-07-29T10:00:04;18.13;;;7.60;;
51298;SDS011;37382;45.192;9.790;2022-07-29T10:02:41;9.27;;;5.53;;
51298;SDS011;37382;45.192;9.790;2022-07-29T10:05:20;6.53;;;5.40;;
51298;SDS011;37382;45.192;9.790;2022-07-29T10:07:53;15.18;;;7.20;;
51298;SDS011;37382;45.192;9.790;2022-07-29T10:10:24;13.32;;;5.53;;
51298;SDS011;37382;45.192;9.790;2022-07-29T10:15:38;12.52;;;7.85;;
51298;SDS011;37382;45.192;9.790;2022-07-29T10:18:08;6.30;;;5.53;;
51298;SDS011;37382;45.192;9.790;2022-07-29T10:20:37;12.50;;;7.80;;
51298;SDS011;37382;45.192;9.790;2022-07-29T10:23:05;13.38;;;7.72;;
51298;SDS011;37382;45.192;9.790;2022-07-29T10:25:33;8.55;;;7.72;;
51298;SDS011;37382;45.192;9.790;2022-07-29T10:28:00;14.90;;;7.75;;
51298;SDS011;37382;45.192;9.790;2022-07-29T10:30:28;10.00;;;7.82;;
51298;SDS011;37382;45.192;9.790;2022-07-29T10:44:20;12.90;;;7.18;;
51298;SDS011;37382;45.192;9.790;2022-07-29T10:46:50;8.60;;;7.53;;
51298;SDS011;37382;45.192;9.790;2022-07-29T10:49:19;12.35;;;7.05;;
51298;SDS011;37382;45.192;9.790;2022-07-29T10:51:52;10.88;;;5.90;;
51298;SDS011;37382;45.192;9.790;2022-07-29T10:57:22;10.23;;;6.85;;
51298;SDS011;37382;45.192;9.790;2022-07-29T11:00:26;9.73;;;6.25;;
51298;SDS011;37382;45.192;9.790;2022-07-29T11:02:55;12.70;;;8.65;;
51298;SDS011;37382;45.192;9.790;2022-07-29T11:05:25;11.75;;;6.40;;
51298;SDS011;37382;45.192;9.790;2022-07-29T11:10:47;9.88;;;5.93;;
51298;SDS011;37382;45.192;9.790;2022-07-29T11:16:15;14.25;;;7.75;;
51298;SDS011;37382;45.192;9.790;2022-07-29T11:21:41;13.93;;;7.90;;
51298;SDS011;37382;45.192;9.790;2022-07-29T11:29:40;8.27;;;6.47;;
51298;SDS011;37382;45.192;9.790;2022-07-29T11:32:23;15.30;;;6.65;;
51298;SDS011;37382;45.192;9.790;2022-07-29T11:43:52;10.23;;;5.72;;
51298;SDS011;37382;45.192;9.790;2022-07-29T11:49:20;13.40;;;6.23;;
51298;SDS011;37382;45.192;9.790;2022-07-29T11:51:59;11.18;;;6.45;;
51298;SDS011;37382;45.192;9.790;2022-07-29T11:54:31;11.05;;;4.80;;
51298;SDS011;37382;45.192;9.790;2022-07-29T11:57:21;9.90;;;5.97;;
51298;SDS011;37382;45.192;9.790;2022-07-29T12:02:39;12.30;;;6.63;;
51298;SDS011;37382;45.192;9.790;2022-07-29T12:05:15;17.77;;;8.95;;
51298;SDS011;37382;45.192;9.790;2022-07-29T12:08:06;14.10;;;8.18;;
51298;SDS011;37382;45.192;9.790;2022-07-29T12:10:39;18.35;;;7.80;;
51298;SDS011;37382;45.192;9.790;2022-07-29T12:13:08;7.70;;;5.38;;
51298;SDS011;37382;45.192;9.790;2022-07-29T12:15:38;11.88;;;6.72;;
51298;SDS011;37382;45.192;9.790;2022-07-29T12:18:17;12.43;;;6.32;;
51298;SDS011;37382;45.192;9.790;2022-07-29T12:21:00;13.55;;;5.60;;
51298;SDS011;37382;45.192;9.790;2022-07-29T12:23:32;6.85;;;3.85;;
51298;SDS011;37382;45.192;9.790;2022-07-29T12:26:04;13.10;;;5.20;;
51298;SDS011;37382;45.192;9.790;2022-07-29T12:28:51;14.20;;;6.50;;
51298;SDS011;37382;45.192;9.790;2022-07-29T12:31:20;7.47;;;4.90;;
51298;SDS011;37382;45.192;9.790;2022-07-29T12:34:09;14.02;;;6.68;;
51298;SDS011;37382;45.192;9.790;2022-07-29T12:36:38;17.45;;;5.15;;
51298;SDS011;37382;45.192;9.790;2022-07-29T12:39:06;7.82;;;3.88;;
51298;SDS011;37382;45.192;9.790;2022-07-29T12:41:33;15.82;;;6.40;;
51298;SDS011;37382;45.192;9.790;2022-07-29T12:44:01;8.82;;;3.78;;
51298;SDS011;37382;45.192;9.790;2022-07-29T12:46:31;18.15;;;6.07;;
51298;SDS011;37382;45.192;9.790;2022-07-29T12:48:59;8.52;;;4.43;;
51298;SDS011;37382;45.192;9.790;2022-07-29T12:51:37;13.65;;;5.25;;
51298;SDS011;37382;45.192;9.790;2022-07-29T12:56:34;7.32;;;4.03;;
51298;SDS011;37382;45.192;9.790;2022-07-29T12:59:15;9.38;;;4.88;;
51298;SDS011;37382;45.192;9.790;2022-07-29T13:01:48;7.28;;;5.10;;
51298;SDS011;37382;45.192;9.790;2022-07-29T13:04:29;14.63;;;5.28;;
51298;SDS011;37382;45.192;9.790;2022-07-29T13:07:02;9.30;;;5.50;;
51298;SDS011;37382;45.192;9.790;2022-07-29T13:09:37;14.02;;;5.90;;
51298;SDS011;37382;45.192;9.790;2022-07-29T13:12:13;16.38;;;5.43;;
51298;SDS011;37382;45.192;9.790;2022-07-29T13:14:45;17.83;;;4.93;;
51298;SDS011;37382;45.192;9.790;2022-07-29T13:17:17;15.60;;;5.40;;
51298;SDS011;37382;45.192;9.790;2022-07-29T13:20:04;10.57;;;3.65;;
51298;SDS011;37382;45.192;9.790;2022-07-29T13:22:35;9.85;;;4.32;;
51298;SDS011;37382;45.192;9.790;2022-07-29T13:25:03;8.52;;;3.97;;
51298;SDS011;37382;45.192;9.790;2022-07-29T13:27:34;8.50;;;3.65;;
51298;SDS011;37382;45.192;9.790;2022-07-29T13:32:33;9.57;;;4.70;;
51298;SDS011;37382;45.192;9.790;2022-07-29T13:35:03;7.68;;;3.60;;
51298;SDS011;37382;45.192;9.790;2022-07-29T13:37:33;13.73;;;3.92;;
51298;SDS011;37382;45.192;9.790;2022-07-29T13:40:02;8.45;;;3.83;;
51298;SDS011;37382;45.192;9.790;2022-07-29T13:42:31;7.28;;;3.75;;
51298;SDS011;37382;45.192;9.790;2022-07-29T13:45:00;11.80;;;4.80;;
51298;SDS011;37382;45.192;9.790;2022-07-29T13:47:28;12.38;;;4.43;;
51298;SDS011;37382;45.192;9.790;2022-07-29T13:50:00;14.13;;;5.70;;
51298;SDS011;37382;45.192;9.790;2022-07-29T13:52:28;9.43;;;4.30;;
51298;SDS011;37382;45.192;9.790;2022-07-29T13:54:56;5.95;;;3.53;;
51298;SDS011;37382;45.192;9.790;2022-07-29T13:57:23;7.35;;;4.30;;
51298;SDS011;37382;45.192;9.790;2022-07-29T13:59:51;8.48;;;4.20;;
51298;SDS011;37382;45.192;9.790;2022-07-29T14:02:20;13.10;;;3.90;;
51298;SDS011;37382;45.192;9.790;2022-07-29T14:04:52;7.95;;;3.95;;
51298;SDS011;37382;45.192;9.790;2022-07-29T14:07:21;9.38;;;3.83;;
51298;SDS011;37382;45.192;9.790;2022-07-29T14:09:50;7.40;;;3.75;;
51298;SDS011;37382;45.192;9.790;2022-07-29T14:12:17;10.13;;;4.20;;
51298;SDS011;37382;45.192;9.790;2022-07-29T14:14:46;11.85;;;3.70;;
51298;SDS011;37382;45.192;9.790;2022-07-29T14:17:14;9.10;;;3.85;;
51298;SDS011;37382;45.192;9.790;2022-07-29T14:19:42;11.70;;;3.90;;
51298;SDS011;37382;45.192;9.790;2022-07-29T14:22:10;5.63;;;3.53;;
51298;SDS011;37382;45.192;9.790;2022-07-29T14:24:37;47.58;;;5.70;;
51298;SDS011;37382;45.192;9.790;2022-07-29T14:27:06;16.98;;;5.07;;
51298;SDS011;37382;45.192;9.790;2022-07-29T14:29:35;43.45;;;5.65;;
51298;SDS011;37382;45.192;9.790;2022-07-29T14:32:05;21.95;;;5.43;;
51298;SDS011;37382;45.192;9.790;2022-07-29T14:34:34;14.60;;;5.70;;
51298;SDS011;37382;45.192;9.790;2022-07-29T14:37:03;12.75;;;4.82;;
51298;SDS011;37382;45.192;9.790;2022-07-29T14:39:33;13.48;;;4.50;;
51298;SDS011;37382;45.192;9.790;2022-07-29T14:42:09;20.48;;;5.80;;
51298;SDS011;37382;45.192;9.790;2022-07-29T14:44:39;12.32;;;6.00;;
51298;SDS011;37382;45.192;9.790;2022-07-29T14:47:08;12.40;;;6.03;;
51298;SDS011;37382;45.192;9.790;2022-07-29T14:49:36;14.35;;;7.20;;
51298;SDS011;37382;45.192;9.790;2022-07-29T14:52:05;16.95;;;9.60;;
51298;SDS011;37382;45.192;9.790;2022-07-29T14:54:32;16.55;;;10.80;;
51298;SDS011;37382;45.192;9.790;2022-07-29T14:57:00;24.33;;;11.63;;
51298;SDS011;37382;45.192;9.790;2022-07-29T14:59:27;18.92;;;12.63;;
51298;SDS011;37382;45.192;9.790;2022-07-29T15:01:55;22.17;;;13.15;;
51298;SDS011;37382;45.192;9.790;2022-07-29T15:04:23;23.20;;;11.93;;
51298;SDS011;37382;45.192;9.790;2022-07-29T15:06:51;19.85;;;11.95;;
51298;SDS011;37382;45.192;9.790;2022-07-29T15:09:18;24.35;;;12.23;;
51298;SDS011;37382;45.192;9.790;2022-07-29T15:11:46;23.95;;;12.93;;
51298;SDS011;37382;45.192;9.790;2022-07-29T15:14:14;19.65;;;12.52;;
51298;SDS011;37382;45.192;9.790;2022-07-29T15:16:41;14.30;;;10.30;;
51298;SDS011;37382;45.192;9.790;2022-07-29T15:19:12;20.15;;;11.30;;
51298;SDS011;37382;45.192;9.790;2022-07-29T15:21:40;20.00;;;10.63;;
51298;SDS011;37382;45.192;9.790;2022-07-29T15:24:15;15.93;;;9.98;;
51298;SDS011;37382;45.192;9.790;2022-07-29T15:26:47;13.90;;;9.88;;
51298;SDS011;37382;45.192;9.790;2022-07-29T15:29:14;12.45;;;9.75;;
51298;SDS011;37382;45.192;9.790;2022-07-29T15:31:42;16.50;;;9.35;;
51298;SDS011;37382;45.192;9.790;2022-07-29T15:34:10;23.02;;;9.50;;
51298;SDS011;37382;45.192;9.790;2022-07-29T15:36:38;9.75;;;7.75;;
51298;SDS011;37382;45.192;9.790;2022-07-29T15:39:19;14.90;;;9.95;;
51298;SDS011;37382;45.192;9.790;2022-07-29T15:41:48;15.68;;;10.05;;
51298;SDS011;37382;45.192;9.790;2022-07-29T15:44:16;17.98;;;8.30;;
51298;SDS011;37382;45.192;9.790;2022-07-29T15:46:43;13.48;;;9.73;;
51298;SDS011;37382;45.192;9.790;2022-07-29T15:52:19;13.93;;;9.20;;
51298;SDS011;37382;45.192;9.790;2022-07-29T15:54:53;25.95;;;8.93;;
51298;SDS011;37382;45.192;9.790;2022-07-29T15:57:22;17.75;;;9.02;;
51298;SDS011;37382;45.192;9.790;2022-07-29T15:59:51;16.15;;;8.60;;
51298;SDS011;37382;45.192;9.790;2022-07-29T16:02:18;13.32;;;8.82;;
51298;SDS011;37382;45.192;9.790;2022-07-29T16:04:46;11.57;;;9.40;;
51298;SDS011;37382;45.192;9.790;2022-07-29T16:07:14;19.13;;;9.80;;
51298;SDS011;37382;45.192;9.790;2022-07-29T16:09:42;13.23;;;9.98;;
51298;SDS011;37382;45.192;9.790;2022-07-29T16:12:18;20.85;;;10.43;;
51298;SDS011;37382;45.192;9.790;2022-07-29T16:14:46;12.18;;;9.65;;
51298;SDS011;37382;45.192;9.790;2022-07-29T16:17:15;9.80;;;8.40;;